sensor_id;sensor_type;location;lat;lon;timestamp;P1;durP1;ratioP1;P2;durP2;ratioP2
72095;SDS011;59968;51.084;16.748;2022-11-20T00:01:32;21.30;;;8.20;;
72095;SDS011;59968;51.084;16.748;2022-11-20T00:04:01;23.50;;;8.20;;
72095;SDS011;59968;51.084;16.748;2022-11-20T00:06:30;29.10;;;11.00;;
72095;SDS011;59968;51.084;16.748;2022-11-20T00:08:59;29.90;;;10.80;;
72095;SDS011;59968;51.084;16.748;2022-11-20T00:11:30;42.50;;;14.90;;
72095;SDS011;59968;51.084;16.748;2022-11-20T00:14:00;40.60;;;14.00;;
72095;SDS011;59968;51.084;16.748;2022-11-20T00:16:30;37.80;;;14.80;;
72095;SDS011;59968;51.084;16.748;2022-11-20T00:19:00;26.80;;;9.90;;
72095;SDS011;59968;51.084;16.748;2022-11-20T00:21:29;29.00;;;11.00;;
72095;SDS011;59968;51.084;16.748;2022-11-20T00:23:58;25.80;;;8.70;;
72095;SDS011;59968;51.084;16.748;2022-11-20T00:26:27;23.40;;;8.40;;
72095;SDS011;59968;51.084;16.748;2022-11-20T00:28:57;23.60;;;8.20;;
72095;SDS011;59968;51.084;16.748;2022-11-20T00:31:27;22.20;;;8.40;;
72095;SDS011;59968;51.084;16.748;2022-11-20T00:33:56;23.60;;;8.60;;
72095;SDS011;59968;51.084;16.748;2022-11-20T00:36:25;19.40;;;7.70;;
72095;SDS011;59968;51.084;16.748;2022-11-20T00:38:56;23.90;;;8.50;;
72095;SDS011;59968;51.084;16.748;2022-11-20T00:41:26;21.70;;;8.00;;
72095;SDS011;59968;51.084;16.748;2022-11-20T00:43:56;18.40;;;8.00;;
72095;SDS011;59968;51.084;16.748;2022-11-20T00:46:25;17.80;;;7.30;;
72095;SDS011;59968;51.084;16.748;2022-11-20T00:48:55;17.80;;;6.70;;
72095;SDS011;59968;51.084;16.748;2022-11-20T00:51:24;20.90;;;7.70;;
72095;SDS011;59968;51.084;16.748;2022-11-20T00:53:55;22.30;;;8.00;;
72095;SDS011;59968;51.084;16.748;2022-11-20T00:56:25;21.80;;;8.00;;
72095;SDS011;59968;51.084;16.748;2022-11-20T00:58:54;20.70;;;8.20;;
72095;SDS011;59968;51.084;16.748;2022-11-20T01:01:24;20.60;;;8.00;;
72095;SDS011;59968;51.084;16.748;2022-11-20T01:03:54;17.60;;;6.90;;
72095;SDS011;59968;51.084;16.748;2022-11-20T01:06:25;19.20;;;7.80;;
72095;SDS011;59968;51.084;16.748;2022-11-20T01:08:57;17.00;;;6.80;;
72095;SDS011;59968;51.084;16.748;2022-11-20T01:11:27;19.70;;;7.00;;
72095;SDS011;59968;51.084;16.748;2022-11-20T01:13:58;18.00;;;7.00;;
72095;SDS011;59968;51.084;16.748;2022-11-20T01:16:29;18.70;;;7.10;;
72095;SDS011;59968;51.084;16.748;2022-11-20T01:19:01;19.40;;;6.90;;
72095;SDS011;59968;51.084;16.748;2022-11-20T01:21:32;25.10;;;8.60;;
72095;SDS011;59968;51.084;16.748;2022-11-20T01:24:05;24.10;;;9.00;;
72095;SDS011;59968;51.084;16.748;2022-11-20T01:26:37;22.70;;;8.90;;
72095;SDS011;59968;51.084;16.748;2022-11-20T01:29:08;23.70;;;8.90;;
72095;SDS011;59968;51.084;16.748;2022-11-20T01:31:42;24.80;;;9.40;;
72095;SDS011;59968;51.084;16.748;2022-11-20T01:34:11;25.60;;;10.90;;
72095;SDS011;59968;51.084;16.748;2022-11-20T01:36:42;26.10;;;10.40;;
72095;SDS011;59968;51.084;16.748;2022-11-20T01:41:39;24.40;;;9.00;;
72095;SDS011;59968;51.084;16.748;2022-11-20T01:47:31;25.50;;;9.80;;
72095;SDS011;59968;51.084;16.748;2022-11-20T01:50:06;28.10;;;11.00;;
72095;SDS011;59968;51.084;16.748;2022-11-20T01:52:46;25.50;;;9.80;;
72095;SDS011;59968;51.084;16.748;2022-11-20T01:55:28;24.50;;;9.90;;
72095;SDS011;59968;51.084;16.748;2022-11-20T01:58:04;25.90;;;10.40;;
72095;SDS011;59968;51.084;16.748;2022-11-20T02:00:33;26.00;;;10.60;;
72095;SDS011;59968;51.084;16.748;2022-11-20T02:03:02;27.10;;;10.20;;
72095;SDS011;59968;51.084;16.748;2022-11-20T02:08:25;26.90;;;10.80;;
72095;SDS011;59968;51.084;16.748;2022-11-20T02:10:53;31.70;;;11.80;;
72095;SDS011;59968;51.084;16.748;2022-11-20T02:13:22;33.30;;;12.50;;
72095;SDS011;59968;51.084;16.748;2022-11-20T02:19:01;45.40;;;20.60;;
72095;SDS011;59968;51.084;16.748;2022-11-20T02:24:18;38.40;;;19.20;;
72095;SDS011;59968;51.084;16.748;2022-11-20T02:26:59;33.20;;;17.70;;
72095;SDS011;59968;51.084;16.748;2022-11-20T02:32:33;22.10;;;8.60;;
72095;SDS011;59968;51.084;16.748;2022-11-20T02:35:07;25.70;;;9.70;;
72095;SDS011;59968;51.084;16.748;2022-11-20T02:37:37;21.40;;;9.00;;
72095;SDS011;59968;51.084;16.748;2022-11-20T02:40:08;26.50;;;10.00;;
72095;SDS011;59968;51.084;16.748;2022-11-20T02:42:39;36.70;;;14.70;;
72095;SDS011;59968;51.084;16.748;2022-11-20T02:45:07;30.50;;;13.30;;
72095;SDS011;59968;51.084;16.748;2022-11-20T02:47:36;44.20;;;16.60;;
72095;SDS011;59968;51.084;16.748;2022-11-20T02:50:05;39.30;;;14.00;;
72095;SDS011;59968;51.084;16.748;2022-11-20T02:52:33;47.70;;;20.50;;
72095;SDS011;59968;51.084;16.748;2022-11-20T02:55:02;37.20;;;15.10;;
72095;SDS011;59968;51.084;16.748;2022-11-20T02:57:30;31.40;;;12.00;;
72095;SDS011;59968;51.084;16.748;2022-11-20T02:59:59;30.80;;;11.80;;
72095;SDS011;59968;51.084;16.748;2022-11-20T03:02:29;31.30;;;11.50;;
72095;SDS011;59968;51.084;16.748;2022-11-20T03:04:58;27.50;;;10.30;;
72095;SDS011;59968;51.084;16.748;2022-11-20T03:07:27;32.30;;;11.70;;
72095;SDS011;59968;51.084;16.748;2022-11-20T03:09:55;31.00;;;11.30;;
72095;SDS011;59968;51.084;16.748;2022-11-20T03:12:23;26.50;;;10.60;;
72095;SDS011;59968;51.084;16.748;2022-11-20T03:14:51;29.40;;;11.10;;
72095;SDS011;59968;51.084;16.748;2022-11-20T03:17:20;32.70;;;11.20;;
72095;SDS011;59968;51.084;16.748;2022-11-20T03:19:48;28.90;;;10.50;;
72095;SDS011;59968;51.084;16.748;2022-11-20T03:22:17;23.20;;;9.30;;
72095;SDS011;59968;51.084;16.748;2022-11-20T03:24:45;26.60;;;10.00;;
72095;SDS011;59968;51.084;16.748;2022-11-20T03:27:13;24.70;;;9.40;;
72095;SDS011;59968;51.084;16.748;2022-11-20T03:29:42;23.50;;;9.60;;
72095;SDS011;59968;51.084;16.748;2022-11-20T03:32:10;29.20;;;9.80;;
72095;SDS011;59968;51.084;16.748;2022-11-20T03:34:38;27.20;;;9.50;;
72095;SDS011;59968;51.084;16.748;2022-11-20T03:37:06;26.40;;;9.90;;
72095;SDS011;59968;51.084;16.748;2022-11-20T03:39:34;27.70;;;10.80;;
72095;SDS011;59968;51.084;16.748;2022-11-20T03:42:03;26.20;;;11.10;;
72095;SDS011;59968;51.084;16.748;2022-11-20T03:44:51;28.10;;;11.00;;
72095;SDS011;59968;51.084;16.748;2022-11-20T03:47:19;26.80;;;10.50;;
72095;SDS011;59968;51.084;16.748;2022-11-20T03:49:47;30.10;;;10.90;;
72095;SDS011;59968;51.084;16.748;2022-11-20T03:52:15;26.20;;;10.10;;
72095;SDS011;59968;51.084;16.748;2022-11-20T03:54:44;32.40;;;11.60;;
72095;SDS011;59968;51.084;16.748;2022-11-20T03:57:12;28.60;;;10.60;;
72095;SDS011;59968;51.084;16.748;2022-11-20T03:59:40;28.20;;;10.60;;
72095;SDS011;59968;51.084;16.748;2022-11-20T04:02:08;27.80;;;10.50;;
72095;SDS011;59968;51.084;16.748;2022-11-20T04:04:37;28.70;;;10.00;;
72095;SDS011;59968;51.084;16.748;2022-11-20T04:07:05;26.60;;;9.50;;
72095;SDS011;59968;51.084;16.748;2022-11-20T04:09:33;23.90;;;9.10;;
72095;SDS011;59968;51.084;16.748;2022-11-20T04:12:01;26.40;;;9.60;;
72095;SDS011;59968;51.084;16.748;2022-11-20T04:14:30;30.40;;;11.90;;
72095;SDS011;59968;51.084;16.748;2022-11-20T04:16:58;26.70;;;10.40;;
72095;SDS011;59968;51.084;16.748;2022-11-20T04:19:26;31.50;;;12.20;;
72095;SDS011;59968;51.084;16.748;2022-11-20T04:21:54;29.30;;;12.00;;
72095;SDS011;59968;51.084;16.748;2022-11-20T04:24:22;26.10;;;10.40;;
72095;SDS011;59968;51.084;16.748;2022-11-20T04:26:50;31.70;;;11.30;;
72095;SDS011;59968;51.084;16.748;2022-11-20T04:29:19;31.00;;;12.40;;
72095;SDS011;59968;51.084;16.748;2022-11-20T04:31:47;31.50;;;11.80;;
72095;SDS011;59968;51.084;16.748;2022-11-20T04:34:16;32.20;;;12.10;;
72095;SDS011;59968;51.084;16.748;2022-11-20T04:36:44;33.30;;;12.90;;
72095;SDS011;59968;51.084;16.748;2022-11-20T04:39:13;30.40;;;12.20;;
72095;SDS011;59968;51.084;16.748;2022-11-20T04:41:43;33.90;;;12.20;;
72095;SDS011;59968;51.084;16.748;2022-11-20T04:44:11;30.80;;;11.70;;
72095;SDS011;59968;51.084;16.748;2022-11-20T04:46:40;31.40;;;12.10;;
72095;SDS011;59968;51.084;16.748;2022-11-20T04:49:10;35.00;;;12.50;;
72095;SDS011;59968;51.084;16.748;2022-11-20T04:51:39;38.60;;;13.50;;
72095;SDS011;59968;51.084;16.748;2022-11-20T04:54:08;30.10;;;12.00;;
72095;SDS011;59968;51.084;16.748;2022-11-20T04:56:37;35.20;;;12.80;;
72095;SDS011;59968;51.084;16.748;2022-11-20T04:59:05;31.60;;;11.50;;
72095;SDS011;59968;51.084;16.748;2022-11-20T05:01:34;31.60;;;11.60;;
72095;SDS011;59968;51.084;16.748;2022-11-20T05:04:02;31.50;;;11.60;;
72095;SDS011;59968;51.084;16.748;2022-11-20T05:06:31;29.70;;;11.30;;
72095;SDS011;59968;51.084;16.748;2022-11-20T05:09:00;23.80;;;10.10;;
72095;SDS011;59968;51.084;16.748;2022-11-20T05:11:28;36.50;;;13.60;;
72095;SDS011;59968;51.084;16.748;2022-11-20T05:13:57;32.90;;;13.00;;
72095;SDS011;59968;51.084;16.748;2022-11-20T05:16:26;34.70;;;12.50;;
72095;SDS011;59968;51.084;16.748;2022-11-20T05:18:54;39.20;;;13.90;;
72095;SDS011;59968;51.084;16.748;2022-11-20T05:21:23;30.70;;;12.10;;
72095;SDS011;59968;51.084;16.748;2022-11-20T05:23:51;31.30;;;10.90;;
72095;SDS011;59968;51.084;16.748;2022-11-20T05:26:20;33.30;;;14.00;;
72095;SDS011;59968;51.084;16.748;2022-11-20T05:28:51;34.20;;;14.00;;
72095;SDS011;59968;51.084;16.748;2022-11-20T05:31:20;34.90;;;13.70;;
72095;SDS011;59968;51.084;16.748;2022-11-20T05:33:55;34.70;;;13.20;;
72095;SDS011;59968;51.084;16.748;2022-11-20T05:36:25;34.60;;;13.60;;
72095;SDS011;59968;51.084;16.748;2022-11-20T05:38:53;33.30;;;13.30;;
72095;SDS011;59968;51.084;16.748;2022-11-20T05:41:28;38.50;;;12.90;;
72095;SDS011;59968;51.084;16.748;2022-11-20T05:43:57;39.50;;;14.40;;
72095;SDS011;59968;51.084;16.748;2022-11-20T05:46:26;39.20;;;13.10;;
72095;SDS011;59968;51.084;16.748;2022-11-20T05:48:57;39.40;;;13.20;;
72095;SDS011;59968;51.084;16.748;2022-11-20T05:51:26;34.70;;;13.40;;
72095;SDS011;59968;51.084;16.748;2022-11-20T05:53:57;37.70;;;13.30;;
72095;SDS011;59968;51.084;16.748;2022-11-20T05:56:26;36.10;;;13.50;;
72095;SDS011;59968;51.084;16.748;2022-11-20T05:58:55;34.50;;;12.70;;
72095;SDS011;59968;51.084;16.748;2022-11-20T06:01:24;33.60;;;12.60;;
72095;SDS011;59968;51.084;16.748;2022-11-20T06:03:53;32.70;;;10.90;;
72095;SDS011;59968;51.084;16.748;2022-11-20T06:06:22;30.60;;;11.30;;
72095;SDS011;59968;51.084;16.748;2022-11-20T06:08:51;28.50;;;11.30;;
72095;SDS011;59968;51.084;16.748;2022-11-20T06:11:19;31.90;;;12.00;;
72095;SDS011;59968;51.084;16.748;2022-11-20T06:13:48;28.70;;;10.60;;
72095;SDS011;59968;51.084;16.748;2022-11-20T06:16:18;26.30;;;9.20;;
72095;SDS011;59968;51.084;16.748;2022-11-20T06:18:47;24.20;;;9.00;;
72095;SDS011;59968;51.084;16.748;2022-11-20T06:21:19;27.70;;;9.90;;
72095;SDS011;59968;51.084;16.748;2022-11-20T06:23:49;26.60;;;9.30;;
72095;SDS011;59968;51.084;16.748;2022-11-20T06:26:23;34.10;;;11.70;;
72095;SDS011;59968;51.084;16.748;2022-11-20T06:28:54;34.20;;;12.40;;
72095;SDS011;59968;51.084;16.748;2022-11-20T06:31:24;34.50;;;12.70;;
72095;SDS011;59968;51.084;16.748;2022-11-20T06:33:53;36.00;;;13.20;;
72095;SDS011;59968;51.084;16.748;2022-11-20T06:36:22;35.80;;;13.30;;
72095;SDS011;59968;51.084;16.748;2022-11-20T06:38:51;35.80;;;12.90;;
72095;SDS011;59968;51.084;16.748;2022-11-20T06:41:20;33.50;;;13.20;;
72095;SDS011;59968;51.084;16.748;2022-11-20T06:43:49;31.10;;;12.70;;
72095;SDS011;59968;51.084;16.748;2022-11-20T06:46:18;33.30;;;12.00;;
72095;SDS011;59968;51.084;16.748;2022-11-20T06:48:47;34.10;;;12.50;;
72095;SDS011;59968;51.084;16.748;2022-11-20T06:51:17;35.90;;;13.90;;
72095;SDS011;59968;51.084;16.748;2022-11-20T06:53:46;32.70;;;12.80;;
72095;SDS011;59968;51.084;16.748;2022-11-20T06:56:14;38.30;;;15.10;;
72095;SDS011;59968;51.084;16.748;2022-11-20T06:58:42;33.50;;;13.60;;
72095;SDS011;59968;51.084;16.748;2022-11-20T07:01:12;32.20;;;12.10;;
72095;SDS011;59968;51.084;16.748;2022-11-20T07:03:41;32.80;;;12.60;;
72095;SDS011;59968;51.084;16.748;2022-11-20T07:06:10;34.60;;;12.90;;
72095;SDS011;59968;51.084;16.748;2022-11-20T07:08:39;33.50;;;12.40;;
72095;SDS011;59968;51.084;16.748;2022-11-20T07:11:07;27.60;;;10.70;;
72095;SDS011;59968;51.084;16.748;2022-11-20T07:13:37;29.00;;;10.60;;
72095;SDS011;59968;51.084;16.748;2022-11-20T07:16:07;33.60;;;11.00;;
72095;SDS011;59968;51.084;16.748;2022-11-20T07:18:36;32.60;;;12.60;;
72095;SDS011;59968;51.084;16.748;2022-11-20T07:21:07;35.10;;;13.60;;
72095;SDS011;59968;51.084;16.748;2022-11-20T07:23:38;38.80;;;12.50;;
72095;SDS011;59968;51.084;16.748;2022-11-20T07:26:08;30.80;;;12.50;;
72095;SDS011;59968;51.084;16.748;2022-11-20T07:28:39;34.50;;;13.30;;
72095;SDS011;59968;51.084;16.748;2022-11-20T07:31:07;34.70;;;12.60;;
72095;SDS011;59968;51.084;16.748;2022-11-20T07:33:44;35.80;;;13.00;;
72095;SDS011;59968;51.084;16.748;2022-11-20T07:36:12;38.40;;;13.50;;
72095;SDS011;59968;51.084;16.748;2022-11-20T07:38:41;36.40;;;13.80;;
72095;SDS011;59968;51.084;16.748;2022-11-20T07:41:09;37.70;;;13.50;;
72095;SDS011;59968;51.084;16.748;2022-11-20T07:43:39;31.40;;;12.10;;
72095;SDS011;59968;51.084;16.748;2022-11-20T07:46:09;32.40;;;11.10;;
72095;SDS011;59968;51.084;16.748;2022-11-20T07:48:38;29.20;;;11.40;;
72095;SDS011;59968;51.084;16.748;2022-11-20T07:51:07;31.70;;;10.60;;
72095;SDS011;59968;51.084;16.748;2022-11-20T07:53:37;28.60;;;9.90;;
72095;SDS011;59968;51.084;16.748;2022-11-20T07:56:06;25.70;;;9.80;;
72095;SDS011;59968;51.084;16.748;2022-11-20T07:58:36;29.30;;;11.20;;
72095;SDS011;59968;51.084;16.748;2022-11-20T08:01:05;26.90;;;9.70;;
72095;SDS011;59968;51.084;16.748;2022-11-20T08:03:36;34.80;;;12.90;;
72095;SDS011;59968;51.084;16.748;2022-11-20T08:06:06;27.90;;;10.70;;
72095;SDS011;59968;51.084;16.748;2022-11-20T08:08:35;34.80;;;13.20;;
72095;SDS011;59968;51.084;16.748;2022-11-20T08:11:09;38.20;;;14.50;;
72095;SDS011;59968;51.084;16.748;2022-11-20T08:13:57;35.20;;;13.10;;
72095;SDS011;59968;51.084;16.748;2022-11-20T08:16:46;34.70;;;13.40;;
72095;SDS011;59968;51.084;16.748;2022-11-20T08:19:17;34.80;;;12.80;;
72095;SDS011;59968;51.084;16.748;2022-11-20T08:21:47;24.50;;;9.80;;
72095;SDS011;59968;51.084;16.748;2022-11-20T08:24:15;36.60;;;13.10;;
72095;SDS011;59968;51.084;16.748;2022-11-20T08:26:44;31.30;;;12.60;;
72095;SDS011;59968;51.084;16.748;2022-11-20T08:29:13;28.60;;;10.20;;
72095;SDS011;59968;51.084;16.748;2022-11-20T08:31:42;34.90;;;12.90;;
72095;SDS011;59968;51.084;16.748;2022-11-20T08:34:31;26.40;;;10.30;;
72095;SDS011;59968;51.084;16.748;2022-11-20T08:37:02;30.30;;;10.80;;
72095;SDS011;59968;51.084;16.748;2022-11-20T08:39:32;28.30;;;10.80;;
72095;SDS011;59968;51.084;16.748;2022-11-20T08:42:02;32.10;;;12.30;;
72095;SDS011;59968;51.084;16.748;2022-11-20T08:44:34;33.90;;;12.60;;
72095;SDS011;59968;51.084;16.748;2022-11-20T08:47:03;31.80;;;12.20;;
72095;SDS011;59968;51.084;16.748;2022-11-20T08:49:32;33.30;;;13.90;;
72095;SDS011;59968;51.084;16.748;2022-11-20T08:52:02;34.70;;;12.20;;
72095;SDS011;59968;51.084;16.748;2022-11-20T08:54:32;33.00;;;12.20;;
72095;SDS011;59968;51.084;16.748;2022-11-20T08:57:02;24.60;;;9.60;;
72095;SDS011;59968;51.084;16.748;2022-11-20T08:59:33;31.90;;;12.30;;
72095;SDS011;59968;51.084;16.748;2022-11-20T09:02:23;33.70;;;12.40;;
72095;SDS011;59968;51.084;16.748;2022-11-20T09:04:52;26.70;;;10.40;;
72095;SDS011;59968;51.084;16.748;2022-11-20T09:07:25;28.40;;;10.60;;
72095;SDS011;59968;51.084;16.748;2022-11-20T09:09:54;28.40;;;11.20;;
72095;SDS011;59968;51.084;16.748;2022-11-20T09:12:44;23.10;;;9.10;;
72095;SDS011;59968;51.084;16.748;2022-11-20T09:15:17;21.10;;;8.30;;
72095;SDS011;59968;51.084;16.748;2022-11-20T09:20:22;27.60;;;11.90;;
72095;SDS011;59968;51.084;16.748;2022-11-20T09:22:54;27.90;;;10.60;;
72095;SDS011;59968;51.084;16.748;2022-11-20T09:25:24;25.40;;;10.00;;
72095;SDS011;59968;51.084;16.748;2022-11-20T09:27:59;24.50;;;10.30;;
72095;SDS011;59968;51.084;16.748;2022-11-20T09:30:28;20.90;;;8.20;;
72095;SDS011;59968;51.084;16.748;2022-11-20T09:32:59;22.60;;;9.10;;
72095;SDS011;59968;51.084;16.748;2022-11-20T09:35:29;21.10;;;8.80;;
72095;SDS011;59968;51.084;16.748;2022-11-20T09:38:04;21.30;;;8.70;;
72095;SDS011;59968;51.084;16.748;2022-11-20T09:40:35;21.50;;;8.30;;
72095;SDS011;59968;51.084;16.748;2022-11-20T09:48:55;23.50;;;8.70;;
72095;SDS011;59968;51.084;16.748;2022-11-20T09:56:52;21.50;;;9.10;;
72095;SDS011;59968;51.084;16.748;2022-11-20T09:59:43;30.70;;;11.50;;
72095;SDS011;59968;51.084;16.748;2022-11-20T10:08:12;25.50;;;9.40;;
72095;SDS011;59968;51.084;16.748;2022-11-20T10:10:49;25.10;;;9.40;;
72095;SDS011;59968;51.084;16.748;2022-11-20T10:13:48;25.80;;;10.20;;
72095;SDS011;59968;51.084;16.748;2022-11-20T10:20:14;35.10;;;11.10;;
72095;SDS011;59968;51.084;16.748;2022-11-20T10:23:04;31.80;;;10.20;;
72095;SDS011;59968;51.084;16.748;2022-11-20T10:25:39;21.50;;;7.30;;
72095;SDS011;59968;51.084;16.748;2022-11-20T10:31:10;23.10;;;9.70;;
72095;SDS011;59968;51.084;16.748;2022-11-20T10:33:51;25.60;;;9.10;;
72095;SDS011;59968;51.084;16.748;2022-11-20T10:36:41;24.50;;;9.90;;
72095;SDS011;59968;51.084;16.748;2022-11-20T10:42:14;29.90;;;10.50;;
72095;SDS011;59968;51.084;16.748;2022-11-20T10:44:55;22.90;;;8.70;;
72095;SDS011;59968;51.084;16.748;2022-11-20T10:47:34;30.70;;;10.10;;
72095;SDS011;59968;51.084;16.748;2022-11-20T10:50:04;23.50;;;8.70;;
72095;SDS011;59968;51.084;16.748;2022-11-20T10:55:56;23.80;;;9.20;;
72095;SDS011;59968;51.084;16.748;2022-11-20T11:01:11;17.80;;;7.40;;
72095;SDS011;59968;51.084;16.748;2022-11-20T11:03:43;11.40;;;4.80;;
72095;SDS011;59968;51.084;16.748;2022-11-20T11:08:42;21.60;;;9.00;;
72095;SDS011;59968;51.084;16.748;2022-11-20T11:11:23;22.30;;;9.80;;
72095;SDS011;59968;51.084;16.748;2022-11-20T11:14:04;21.20;;;8.10;;
72095;SDS011;59968;51.084;16.748;2022-11-20T11:19:19;20.00;;;8.30;;
72095;SDS011;59968;51.084;16.748;2022-11-20T11:24:29;22.70;;;7.40;;
72095;SDS011;59968;51.084;16.748;2022-11-20T11:27:14;16.60;;;6.80;;
72095;SDS011;59968;51.084;16.748;2022-11-20T11:29:46;21.10;;;8.00;;
72095;SDS011;59968;51.084;16.748;2022-11-20T11:32:20;19.50;;;7.40;;
72095;SDS011;59968;51.084;16.748;2022-11-20T11:35:02;20.30;;;7.60;;
72095;SDS011;59968;51.084;16.748;2022-11-20T11:37:34;18.90;;;8.50;;
72095;SDS011;59968;51.084;16.748;2022-11-20T11:40:06;17.60;;;7.20;;
72095;SDS011;59968;51.084;16.748;2022-11-20T11:43:00;18.10;;;7.30;;
72095;SDS011;59968;51.084;16.748;2022-11-20T11:45:54;11.20;;;4.10;;
72095;SDS011;59968;51.084;16.748;2022-11-20T11:48:24;15.80;;;6.80;;
72095;SDS011;59968;51.084;16.748;2022-11-20T11:50:53;19.70;;;8.80;;
72095;SDS011;59968;51.084;16.748;2022-11-20T11:53:22;19.80;;;8.10;;
72095;SDS011;59968;51.084;16.748;2022-11-20T11:55:58;15.40;;;6.40;;
72095;SDS011;59968;51.084;16.748;2022-11-20T11:58:43;20.40;;;8.20;;
72095;SDS011;59968;51.084;16.748;2022-11-20T12:01:32;17.90;;;7.00;;
72095;SDS011;59968;51.084;16.748;2022-11-20T12:06:48;14.60;;;5.90;;
72095;SDS011;59968;51.084;16.748;2022-11-20T12:09:51;12.80;;;5.40;;
72095;SDS011;59968;51.084;16.748;2022-11-20T12:12:39;12.60;;;5.50;;
72095;SDS011;59968;51.084;16.748;2022-11-20T12:15:13;11.40;;;4.80;;
72095;SDS011;59968;51.084;16.748;2022-11-20T12:17:51;12.20;;;5.70;;
72095;SDS011;59968;51.084;16.748;2022-11-20T12:20:21;12.10;;;4.80;;
72095;SDS011;59968;51.084;16.748;2022-11-20T12:25:44;13.30;;;5.20;;
72095;SDS011;59968;51.084;16.748;2022-11-20T12:28:28;13.90;;;5.80;;
72095;SDS011;59968;51.084;16.748;2022-11-20T12:39:52;11.70;;;5.20;;
72095;SDS011;59968;51.084;16.748;2022-11-20T12:42:42;8.10;;;4.10;;
72095;SDS011;59968;51.084;16.748;2022-11-20T12:46:03;12.00;;;5.10;;
72095;SDS011;59968;51.084;16.748;2022-11-20T12:48:38;13.90;;;5.90;;
72095;SDS011;59968;51.084;16.748;2022-11-20T12:56:45;10.90;;;4.20;;
72095;SDS011;59968;51.084;16.748;2022-11-20T13:07:50;12.70;;;5.00;;
72095;SDS011;59968;51.084;16.748;2022-11-20T13:18:41;22.20;;;8.50;;
72095;SDS011;59968;51.084;16.748;2022-11-20T13:21:14;24.10;;;9.50;;
72095;SDS011;59968;51.084;16.748;2022-11-20T13:23:46;21.20;;;8.20;;
72095;SDS011;59968;51.084;16.748;2022-11-20T13:26:22;22.60;;;8.40;;
72095;SDS011;59968;51.084;16.748;2022-11-20T13:29:09;22.00;;;8.10;;
72095;SDS011;59968;51.084;16.748;2022-11-20T13:31:45;20.50;;;7.40;;
72095;SDS011;59968;51.084;16.748;2022-11-20T13:34:23;19.30;;;7.70;;
72095;SDS011;59968;51.084;16.748;2022-11-20T13:36:55;13.40;;;5.40;;
72095;SDS011;59968;51.084;16.748;2022-11-20T13:39:26;11.80;;;4.80;;
72095;SDS011;59968;51.084;16.748;2022-11-20T13:44:47;15.40;;;5.40;;
72095;SDS011;59968;51.084;16.748;2022-11-20T13:47:21;14.00;;;5.50;;
72095;SDS011;59968;51.084;16.748;2022-11-20T13:49:55;20.30;;;7.10;;
72095;SDS011;59968;51.084;16.748;2022-11-20T14:00:54;39.00;;;9.80;;
72095;SDS011;59968;51.084;16.748;2022-11-20T14:03:30;32.80;;;9.20;;
72095;SDS011;59968;51.084;16.748;2022-11-20T14:06:30;27.10;;;8.70;;
72095;SDS011;59968;51.084;16.748;2022-11-20T14:09:09;28.60;;;9.50;;
72095;SDS011;59968;51.084;16.748;2022-11-20T14:11:46;41.00;;;12.00;;
72095;SDS011;59968;51.084;16.748;2022-11-20T14:14:17;31.00;;;10.30;;
72095;SDS011;59968;51.084;16.748;2022-11-20T14:16:50;22.90;;;8.60;;
72095;SDS011;59968;51.084;16.748;2022-11-20T14:22:10;25.40;;;9.90;;
72095;SDS011;59968;51.084;16.748;2022-11-20T14:25:01;17.80;;;7.20;;
72095;SDS011;59968;51.084;16.748;2022-11-20T14:27:47;19.00;;;8.10;;
72095;SDS011;59968;51.084;16.748;2022-11-20T14:30:22;16.70;;;6.80;;
72095;SDS011;59968;51.084;16.748;2022-11-20T14:32:54;19.10;;;7.40;;
72095;SDS011;59968;51.084;16.748;2022-11-20T14:35:27;14.20;;;5.40;;
72095;SDS011;59968;51.084;16.748;2022-11-20T14:38:01;15.40;;;6.50;;
72095;SDS011;59968;51.084;16.748;2022-11-20T14:40:33;14.70;;;6.20;;
72095;SDS011;59968;51.084;16.748;2022-11-20T14:46:05;16.50;;;6.40;;
72095;SDS011;59968;51.084;16.748;2022-11-20T14:48:38;18.90;;;7.50;;
72095;SDS011;59968;51.084;16.748;2022-11-20T14:51:57;19.50;;;7.50;;
72095;SDS011;59968;51.084;16.748;2022-11-20T14:54:11;20.90;;;8.40;;
72095;SDS011;59968;51.084;16.748;2022-11-20T14:56:56;18.50;;;7.40;;
72095;SDS011;59968;51.084;16.748;2022-11-20T14:59:33;19.70;;;7.90;;
72095;SDS011;59968;51.084;16.748;2022-11-20T15:02:05;19.10;;;7.80;;
72095;SDS011;59968;51.084;16.748;2022-11-20T15:04:49;21.00;;;7.50;;
72095;SDS011;59968;51.084;16.748;2022-11-20T15:07:23;18.80;;;7.50;;
72095;SDS011;59968;51.084;16.748;2022-11-20T15:10:04;21.10;;;8.20;;
72095;SDS011;59968;51.084;16.748;2022-11-20T15:12:36;20.80;;;8.20;;
72095;SDS011;59968;51.084;16.748;2022-11-20T15:15:10;20.80;;;8.20;;
72095;SDS011;59968;51.084;16.748;2022-11-20T15:17:43;16.50;;;6.80;;
72095;SDS011;59968;51.084;16.748;2022-11-20T15:20:13;19.40;;;8.20;;
72095;SDS011;59968;51.084;16.748;2022-11-20T15:22:44;22.40;;;8.80;;
72095;SDS011;59968;51.084;16.748;2022-11-20T15:25:13;22.60;;;8.30;;
72095;SDS011;59968;51.084;16.748;2022-11-20T15:27:44;21.40;;;8.50;;
72095;SDS011;59968;51.084;16.748;2022-11-20T15:30:18;28.60;;;10.70;;
72095;SDS011;59968;51.084;16.748;2022-11-20T15:32:48;29.20;;;11.60;;
72095;SDS011;59968;51.084;16.748;2022-11-20T15:35:17;27.10;;;11.10;;
72095;SDS011;59968;51.084;16.748;2022-11-20T15:37:46;30.60;;;11.90;;
72095;SDS011;59968;51.084;16.748;2022-11-20T15:40:16;28.60;;;11.80;;
72095;SDS011;59968;51.084;16.748;2022-11-20T15:42:45;30.90;;;12.20;;
72095;SDS011;59968;51.084;16.748;2022-11-20T15:45:39;33.70;;;12.60;;
72095;SDS011;59968;51.084;16.748;2022-11-20T15:48:24;31.00;;;13.30;;
72095;SDS011;59968;51.084;16.748;2022-11-20T15:53:49;28.80;;;11.30;;
72095;SDS011;59968;51.084;16.748;2022-11-20T15:56:18;30.10;;;11.70;;
72095;SDS011;59968;51.084;16.748;2022-11-20T15:58:47;29.00;;;10.10;;
72095;SDS011;59968;51.084;16.748;2022-11-20T16:01:17;27.80;;;11.50;;
72095;SDS011;59968;51.084;16.748;2022-11-20T16:03:49;25.20;;;9.50;;
72095;SDS011;59968;51.084;16.748;2022-11-20T16:06:18;30.00;;;10.90;;
72095;SDS011;59968;51.084;16.748;2022-11-20T16:08:51;22.40;;;9.00;;
72095;SDS011;59968;51.084;16.748;2022-11-20T16:11:20;29.20;;;11.10;;
72095;SDS011;59968;51.084;16.748;2022-11-20T16:13:49;26.10;;;11.00;;
72095;SDS011;59968;51.084;16.748;2022-11-20T16:16:37;26.00;;;10.50;;
72095;SDS011;59968;51.084;16.748;2022-11-20T16:19:11;27.80;;;11.70;;
72095;SDS011;59968;51.084;16.748;2022-11-20T16:21:41;32.50;;;12.60;;
72095;SDS011;59968;51.084;16.748;2022-11-20T16:24:11;27.80;;;10.60;;
72095;SDS011;59968;51.084;16.748;2022-11-20T16:26:42;23.90;;;9.30;;
72095;SDS011;59968;51.084;16.748;2022-11-20T16:29:11;26.00;;;10.60;;
72095;SDS011;59968;51.084;16.748;2022-11-20T16:31:42;27.50;;;11.10;;
72095;SDS011;59968;51.084;16.748;2022-11-20T16:34:11;23.70;;;9.40;;
72095;SDS011;59968;51.084;16.748;2022-11-20T16:36:41;25.40;;;9.60;;
72095;SDS011;59968;51.084;16.748;2022-11-20T16:39:12;24.90;;;9.60;;
72095;SDS011;59968;51.084;16.748;2022-11-20T16:41:49;23.90;;;9.50;;